Aeroporto :
LOGIN :

Iscrizione | Disclaimer

   EN    FR    IT 

 










Sommario :    VFR   VFR Marginale   IFR   IFR Intensivo   IFR Molto Intensivo
Visibilità : 
Base nubi : 
>= 8 km
>= 3000ft
5 / 8 km
1000 / 3000 ft
1500m / 5 km
500 / 1000 ft
800 / 1500m
200 / 500 ft
< 800m
< 200 ft
Simboli :   Temporali  Nebbia  Neve Forte  Precipitazioni Forti  Vento > 20 kt
SIGMETs :   Varie  Temporali  Ghiacco  Turbolenza  Onda orograficha  Ceneri Vulcaniche







- Altitudine del aeroporto : 39 ft


ETNH - Hohn AB

ULTIMO METAR :
  • 261120Z 25012KT 3000 -DZ BR FEW001 BKN006 14/13 Q1007 YLO

METARs OBSOLETI :
  • 261102Z 25013KT 3000 BR SCT003 BKN006 14/13 Q1007 REDZ YLO
  • 261020Z 24011G21KT 2200 DZ BR FEW002 BKN006 14/13 Q1007 YLO
  • 260930Z 23010KT 2000 -RADZ BR SCT003 BKN005 13/12 Q1007 YLO
  • 260820Z 22011KT 2300 -DZRA BR BKN006 BKN008 12/11 Q1007 YLO

TAF TAF ETNH
Valido dal 26 a 11 ore il 26 a 23 ore UTC


261010Z 2611/2623 24012KT 7000 NSW SCT015 BKN050
TEMPO 2611/2623 27012G22KT 3000 -RADZ BKN006 BKN012 BY ETGL
Nessun NOTAM noto per questo aeroporto.



MetMap, La meteo Aeronautica in un colpo d'occhio ! - Copyright ORBIFLY Dicembre 2007 - Disclaimer

ORBIFLY MET'MAP TEAM :

Programmazione e sviluppo : Alexandra Zaïnal
Concezione e sviluppo : Baudouin d'Aumeries
Co-Programmazione e sviluppo : Marc-Olivier Méhu
Supporto tecnico e logistico : Manuel Goepfert
Aiuto per la traduzione : Arnaldo La Scala

Contatto : metmap@orbifly.com




FONTI E CREDITI :

   NOAA